Airfield :
LOGIN :

Register | Disclaimer

   EN    FR    IT 

 










Legend :    VFR   Marginal VFR   IFR   Intensive IFR   Very Intensive IFR
Visi :
Ceiling :
>= 8 km
>= 3000ft
5 to 8 km
1000 to 3000 ft
1500m to 5 km
500 to 1000 ft
800 to 1500m
200 to 500 ft
< 800m
< 200 ft
Symbols :   Thunderstorms  Fog  Heavy snow  Heavy precipitations  Wind > 20 kt
SIGMETs :     Misc.  Thunderstorms  Icing  Turbulence  Mountain Waves  Volcanic Ashes






- Airport Elevation : 326 ft
- IATA code : LCG


LECO - A Coruna

CURRENT METAR :
  • 241121Z 33011KT 290V030 7000 RA FEW018 BKN030 09/06 Q1015 TEMPO 3000

EXPIRED METARs :
  • 241100Z 29012KT 200V340 9999 FEW022 SCT030 11/06 Q1015 TEMPO 3000 RA
  • 241030Z 29010KT 240V320 9999 SCT025 11/06 Q1015 TEMPO 3000 RA
  • 241000Z 29005G15KT 230V350 9999 FEW012 FEW025TCU BKN040 10/06 Q1015 RERA TEMPO 3000 RA
  • 240944Z 30006KT 240V350 9999 FEW012 FEW025TCU SCT030 09/07 Q1015 RERA TEMPO 3000 RA
  • 240930Z 31009KT 260V350 6000 RA BKN028 10/06 Q1015 TEMPO 3000
  • 240900Z 29008KT 240V330 9999 SCT025 09/06 Q1014 TEMPO 3000 RA
  • 240830Z 26007KT 210V290 9999 SCT025 08/06 Q1014 TEMPO 3000 RA
  • 240800Z VRB02KT 9999 FEW012 SCT025 07/05 Q1014 TEMPO 3000 RA
  • 240730Z 33006KT 260V030 9999 2500NE -RA SCT012 SCT025 08/05 Q1013 TEMPO 3000 RA
  • 240700Z 29008KT 260V340 9999 FEW030 SCT040 08/04 Q1013 TEMPO 3000 RA
  • 240630Z 31010KT 270V360 9999 -RA FEW030 SCT040 08/04 Q1013 TEMPO 3000 RA

TAF TAF LECO
Valid from the 24 at 09:00 until the 25 at 09:00 UTC


240800Z 2409/2509 29009KT 9999 BKN035 TX13/2503Z TN09/2418Z
PROB30
TEMPO 2409/2416 3000 RA BKN010
BECMG 2414/2416 22010KT
PROB40
TEMPO 2416/2501 23019G29KT 3000 RA SHRA SCT030TCU
PROB30
TEMPO 2501/2506 23019G29KT 3000 RA BKN010
PROB40
TEMPO 2506/2509 23019G29KT 3000 RA BKN010



MET'MAP, your aeronautical weather chart ! - Copyright ORBIFLY December 2007 - Disclaimer

ORBIFLY MET'MAP TEAM :

Programming & Development : Alexandra Zaïnal
Original concept : Baudouin d'Aumeries
Technical & hardware support : Manuel Goepfert
Assistance : Marc-Olivier Méhu




SOURCES & CREDITS :

   NOAA